METAR Data
IDs: Format: Raw Decoded Include TAF

Data at: 0649 UTC 01 Aug 2021

LFMH 010630Z AUTO 30003KT 260V340 CAVOK 14/13 Q1014